SBMESBCP

Guest
Details From SBME - Macae
To SBCP - Bartolomeu Lisandro
Flight Number -
Tags Generated
Created
Modified
Stats Distance 46 nm / 86 km
Max Altitude 0 ft / 0 m
Waypoints 2
Social Downloads 1
Likes 0
Share VATSIM

Download

Looking for another format? Having issues loading an existing format? Contact us
Advertisement - Login to hide

Notes

Generated

Route

SBME SBCP

ID Type Via Altitude Latitude Longitude Leg Dist Tot Dist Heading (true) Name
O SBME APT - 0 ft / 0 m -22.34760˚ -41.76924˚ - 0 nm - -
O SBCP APT - 0 ft / 0 m -21.70313˚ -41.30712˚ 46 nm 46 nm 34° / 34° -

Altitude Profile

Advertisement - Login to hide

SBME

Details ICAO SBME (MEA)
Name MACAE
Region Brazil
Timezone America/Sao_Paulo (UTC-2.0)
Stats Elevation 8 ft / 2 m (AMSL)
Location -22.343032° -41.766035°
Runways 1
Magnetic Variation 23.289° W

METAR

Not found

TAF

TAF TAF SBME 151400Z 1518/1606 06010KT 9999 FEW025 TX32/1518Z TN24/1606Z BECMG 1521/1523 03005KT BECMG 1600/1602 34005KT RMK PHC

Decode

Departure Runways

ID Width Length Bearing (true) Bearing (mag) Surface Threshold Offset Overrun Length
06 98 ft / 30 m 3,973 ft / 1,211 m 33.02° 56.31° Asphalt 0 ft / 0 m 0 ft / 0 m
24 98 ft / 30 m 3,973 ft / 1,211 m 213.01° 236.30° Asphalt 0 ft / 0 m 0 ft / 0 m

SBCP

Details ICAO SBCP (CAW)
Name Bartolomeu Lisandro
Region Brazil
Timezone America/Sao_Paulo (UTC-2.0)
Stats Elevation 57 ft / 17 m (AMSL)
Location -21.698334° -41.301668°
Runways 1
Magnetic Variation 23.476° W

METAR

Not found

TAF

TAF SBCP 151400Z 1518/1606 07015KT 9999 FEW025 TX29/1518Z TN24/1522Z BECMG 1522/1524 04010KT RMK PHC

Decode

Destination Runways

ID Width Length Bearing (true) Bearing (mag) Surface Threshold Offset Overrun Length
07 148 ft / 45 m 5,093 ft / 1,552 m 46.60° 70.08° Asphalt 0 ft / 0 m 0 ft / 0 m
25 148 ft / 45 m 5,093 ft / 1,552 m 226.60° 250.08° Asphalt 0 ft / 0 m 0 ft / 0 m